Time,TemperatureF,DewpointF,PressureIn,WindDirection,WindDirectionDegrees,WindSpeedMPH,WindSpeedGustMPH,Humidity,HourlyPrecipIn,Conditions,Clouds,dailyrainin,SoftwareType,DateUTC
2013-04-10 00:03:00,-1.0,-5.0,-100.00,East,95,6.0,8.0,86,0.00,,,-99.99,,2013-04-10 06:03:00,
2013-04-10 00:12:00,-1.0,-5.0,-100.00,East,97,7.0,10.0,86,0.00,,,-99.99,,2013-04-10 06:12:00,
2013-04-10 00:22:00,-1.0,-4.0,-100.00,East,95,7.0,9.0,87,-99.99,,,-99.99,,2013-04-10 06:22:00,
2013-04-10 00:32:00,-2.0,-5.0,-100.00,East,95,9.0,11.0,86,0.00,,,-99.99,,2013-04-10 06:32:00,
2013-04-10 00:42:00,-2.0,-5.0,-100.00,East,96,9.0,12.0,86,0.00,,,-99.99,,2013-04-10 06:42:00,
2013-04-10 00:52:00,-1.0,-5.0,-100.00,East,95,9.0,11.0,85,0.00,,,-99.99,,2013-04-10 06:52:00,
2013-04-10 01:02:00,-1.0,-4.0,-100.00,East,96,9.0,11.0,85,0.00,,,-99.99,,2013-04-10 07:02:00,
2013-04-10 01:12:00,0.0,-3.0,-100.00,ESE,102,7.0,11.0,85,0.00,,,-99.99,,2013-04-10 07:12:00,
2013-04-10 01:22:00,1.0,-2.0,-100.00,SE,130,4.0,7.0,84,0.00,,,-99.99,,2013-04-10 07:22:00,
2013-04-10 01:32:00,1.0,-2.0,-100.00,SSE,165,3.0,5.0,84,0.00,,,-99.99,,2013-04-10 07:32:00,
2013-04-10 01:42:00,2.0,-1.0,-100.00,SSE,150,2.0,6.0,85,0.00,,,-99.99,,2013-04-10 07:42:00,
2013-04-10 01:52:00,3.0,-1.0,-100.00,SSW,193,1.0,2.0,85,0.00,,,-99.99,,2013-04-10 07:52:00,
2013-04-10 02:02:00,3.0,0.0,-100.00,SSE,165,2.0,3.0,85,0.00,,,-99.99,,2013-04-10 08:02:00,
2013-04-10 02:12:00,-999.0,-99.9,-100.00,South,185,4.0,5.0,-999,-99.99,,,-99.99,,2013-04-10 08:12:00,
2013-04-10 02:22:00,3.0,0.0,-100.00,SSE,157,3.0,6.0,86,0.00,,,-99.99,,2013-04-10 08:22:00,
2013-04-10 02:32:00,3.0,0.0,-100.00,SE,144,4.0,7.0,87,0.00,,,-99.99,,2013-04-10 08:32:00,
2013-04-10 02:42:00,3.0,0.0,-100.00,South,178,4.0,7.0,86,0.00,,,-99.99,,2013-04-10 08:42:00,
2013-04-10 02:52:00,4.0,1.0,-100.00,SSE,148,3.0,6.0,87,0.00,,,-99.99,,2013-04-10 08:52:00,
2013-04-10 03:02:00,4.0,1.0,-100.00,South,175,1.0,3.0,87,-99.99,,,-99.99,,2013-04-10 09:02:00,
2013-04-10 03:12:00,4.0,1.0,-100.00,SSE,168,3.0,7.0,86,0.00,,,-99.99,,2013-04-10 09:12:00,
2013-04-10 03:22:00,3.0,-1.0,-100.00,South,175,7.0,14.0,85,-99.99,,,-99.99,,2013-04-10 09:22:00,
2013-04-10 03:32:00,3.0,-1.0,-100.00,South,179,12.0,15.0,85,0.00,,,-99.99,,2013-04-10 09:32:00,
2013-04-10 03:42:00,3.0,0.0,-100.00,South,182,10.0,13.0,86,0.00,,,-99.99,,2013-04-10 09:42:00,
2013-04-10 03:52:00,4.0,1.0,-100.00,South,181,11.0,12.0,87,0.00,,,-99.99,,2013-04-10 09:52:00,
2013-04-10 04:03:00,4.0,1.0,-100.00,South,176,11.0,13.0,88,0.00,,,-99.99,,2013-04-10 10:03:00,
2013-04-10 04:12:00,4.0,1.0,-100.00,South,169,12.0,14.0,88,0.00,,,-99.99,,2013-04-10 10:12:00,
2013-04-10 04:23:00,3.0,0.0,-100.00,South,175,10.0,12.0,88,0.00,,,-99.99,,2013-04-10 10:23:00,
2013-04-10 04:33:00,4.0,1.0,-100.00,South,176,11.0,14.0,88,0.00,,,-99.99,,2013-04-10 10:33:00,
2013-04-10 04:42:00,4.0,1.0,-100.00,South,171,11.0,14.0,88,0.00,,,-99.99,,2013-04-10 10:42:00,
2013-04-10 04:52:00,4.0,2.0,-100.00,South,172,12.0,17.0,89,0.00,,,-99.99,,2013-04-10 10:52:00,
2013-04-10 05:02:00,6.0,3.0,-100.00,SSE,164,16.0,20.0,89,0.01,,,-99.99,,2013-04-10 11:02:00,
2013-04-10 05:12:00,6.0,3.0,-100.00,SSE,168,16.0,19.0,89,0.00,,,-99.99,,2013-04-10 11:12:00,
2013-04-10 05:22:00,6.0,4.0,-100.00,South,175,12.0,16.0,89,0.01,,,-99.99,,2013-04-10 11:22:00,
2013-04-10 05:32:00,6.0,4.0,-100.00,South,181,12.0,17.0,90,0.00,,,-99.99,,2013-04-10 11:32:00,
2013-04-10 05:52:00,7.0,4.0,-100.00,SSW,195,14.0,17.0,90,0.00,,,-99.99,,2013-04-10 11:52:00,
2013-04-10 06:02:00,7.0,4.0,-100.00,SSW,195,13.0,16.0,90,0.00,,,-99.99,,2013-04-10 12:02:00,
2013-04-10 06:12:00,7.0,4.0,-100.00,South,186,12.0,16.0,90,0.00,,,-99.99,,2013-04-10 12:12:00,
2013-04-10 06:22:00,7.0,4.0,-100.00,South,179,11.0,14.0,90,0.00,,,-99.99,,2013-04-10 12:22:00,
2013-04-10 06:33:00,7.0,5.0,-100.00,South,181,13.0,17.0,90,0.01,,,-99.99,,2013-04-10 12:33:00,
2013-04-10 06:42:00,7.0,5.0,-100.00,South,178,12.0,17.0,90,0.00,,,-99.99,,2013-04-10 12:42:00,
2013-04-10 06:52:00,7.0,5.0,-100.00,South,171,10.0,13.0,90,0.00,,,-99.99,,2013-04-10 12:52:00,
2013-04-10 07:02:00,8.0,5.0,-100.00,South,174,10.0,14.0,90,0.00,,,-99.99,,2013-04-10 13:02:00,
2013-04-10 07:12:00,8.0,6.0,-100.00,SSE,165,9.0,12.0,90,0.00,,,-99.99,,2013-04-10 13:12:00,
2013-04-10 07:23:00,8.0,6.0,-100.00,SSE,167,9.0,11.0,90,-99.99,,,-99.99,,2013-04-10 13:23:00,
2013-04-10 07:32:00,9.0,6.0,-100.00,SSE,167,9.0,12.0,90,0.00,,,-99.99,,2013-04-10 13:32:00,
2013-04-10 07:42:00,9.0,7.0,-100.00,South,169,10.0,12.0,90,0.00,,,-99.99,,2013-04-10 13:42:00,
2013-04-10 07:52:00,9.0,7.0,-100.00,South,178,10.0,14.0,90,0.00,,,-99.99,,2013-04-10 13:52:00,
2013-04-10 08:02:00,9.0,7.0,-100.00,South,178,11.0,15.0,90,0.00,,,-99.99,,2013-04-10 14:02:00,
2013-04-10 08:12:00,9.0,7.0,-100.00,South,176,12.0,15.0,90,0.00,,,-99.99,,2013-04-10 14:12:00,
2013-04-10 08:22:00,9.0,7.0,-100.00,South,174,12.0,16.0,90,0.00,,,-99.99,,2013-04-10 14:22:00,
2013-04-10 08:33:00,-999.0,-99.9,-100.00,South,171,13.0,17.0,-999,-99.99,,,-99.99,,2013-04-10 14:33:00,
2013-04-10 08:42:00,9.0,7.0,-100.00,South,171,13.0,16.0,90,0.00,,,-99.99,,2013-04-10 14:42:00,
2013-04-10 08:52:00,9.0,7.0,-100.00,SSE,164,15.0,19.0,89,0.00,,,-99.99,,2013-04-10 14:52:00,
2013-04-10 09:02:00,9.0,7.0,-100.00,SSE,162,16.0,21.0,89,0.00,,,-99.99,,2013-04-10 15:02:00,
2013-04-10 09:12:00,9.0,7.0,-100.00,SSE,165,17.0,21.0,89,0.00,,,-99.99,,2013-04-10 15:12:00,
2013-04-10 09:22:00,9.0,7.0,-100.00,SSE,162,18.0,22.0,90,0.00,,,-99.99,,2013-04-10 15:22:00,
2013-04-10 09:32:00,10.0,7.0,-100.00,SSE,164,17.0,21.0,90,0.00,,,-99.99,,2013-04-10 15:32:00,
2013-04-10 09:42:00,10.0,8.0,-100.00,SSE,165,19.0,23.0,89,0.00,,,-99.99,,2013-04-10 15:42:00,
2013-04-10 09:52:00,11.0,8.0,-100.00,SSE,164,18.0,26.0,89,0.00,,,-99.99,,2013-04-10 15:52:00,
2013-04-10 10:03:00,11.0,8.0,-100.00,SSE,164,18.0,22.0,89,0.00,,,-99.99,,2013-04-10 16:03:00,
2013-04-10 10:13:00,12.0,9.0,-100.00,SSE,164,16.0,21.0,88,0.01,,,-99.99,,2013-04-10 16:13:00,
2013-04-10 10:23:00,12.0,9.0,-100.00,SSE,168,17.0,21.0,88,0.01,,,-99.99,,2013-04-10 16:23:00,
2013-04-10 10:32:00,13.0,9.0,-100.00,South,174,16.0,21.0,86,0.00,,,-99.99,,2013-04-10 16:32:00,
2013-04-10 10:43:00,13.0,9.0,-100.00,South,176,16.0,21.0,85,0.00,,,-99.99,,2013-04-10 16:43:00,
2013-04-10 10:52:00,13.0,9.0,-100.00,South,178,17.0,21.0,84,0.00,,,-99.99,,2013-04-10 16:52:00,
2013-04-10 11:02:00,13.0,10.0,-100.00,South,169,17.0,21.0,86,0.00,,,-99.99,,2013-04-10 17:02:00,
2013-04-10 11:13:00,-999.0,-99.9,-100.00,South,171,17.0,21.0,-999,-99.99,,,-99.99,,2013-04-10 17:13:00,
2013-04-10 11:22:00,13.0,11.0,-100.00,SSE,167,18.0,21.0,89,0.00,,,-99.99,,2013-04-10 17:22:00,
2013-04-10 11:33:00,13.0,10.0,-100.00,South,172,18.0,22.0,87,0.00,,,-99.99,,2013-04-10 17:33:00,
2013-04-10 11:52:00,15.0,11.0,-100.00,South,172,19.0,23.0,85,0.00,,,-99.99,,2013-04-10 17:52:00,
2013-04-10 12:02:00,15.0,11.0,-100.00,South,175,17.0,22.0,85,0.00,,,-99.99,,2013-04-10 18:02:00,
2013-04-10 12:12:00,15.0,11.0,-100.00,South,179,17.0,21.0,85,0.00,,,-99.99,,2013-04-10 18:12:00,
2013-04-10 12:22:00,15.0,11.0,-100.00,South,171,17.0,24.0,83,0.00,,,-99.99,,2013-04-10 18:22:00,
2013-04-10 12:33:00,15.0,11.0,-100.00,SSE,164,20.0,25.0,84,0.00,,,-99.99,,2013-04-10 18:33:00,
2013-04-10 12:42:00,16.0,11.0,-100.00,SSE,162,19.0,23.0,83,0.00,,,-99.99,,2013-04-10 18:42:00,
2013-04-10 12:52:00,16.0,12.0,-100.00,SSE,164,19.0,23.0,82,0.00,,,-99.99,,2013-04-10 18:52:00,
2013-04-10 13:03:00,16.0,12.0,-100.00,South,169,19.0,23.0,83,0.00,,,-99.99,,2013-04-10 19:03:00,
2013-04-10 13:12:00,17.0,12.0,-100.00,SSE,162,20.0,25.0,82,0.00,,,-99.99,,2013-04-10 19:12:00,
2013-04-10 13:33:00,17.0,12.0,-100.00,SSE,160,22.0,27.0,83,0.00,,,-99.99,,2013-04-10 19:33:00,
2013-04-10 13:42:00,18.0,13.0,-100.00,SSE,165,20.0,26.0,83,0.00,,,-99.99,,2013-04-10 19:42:00,
2013-04-10 13:52:00,17.0,13.0,-100.00,SSE,162,20.0,24.0,83,0.00,,,-99.99,,2013-04-10 19:52:00,
2013-04-10 14:02:00,18.0,13.0,-100.00,South,171,20.0,25.0,81,0.00,,,-99.99,,2013-04-10 20:02:00,
2013-04-10 14:12:00,18.0,13.0,-100.00,South,171,19.0,24.0,81,0.00,,,-99.99,,2013-04-10 20:12:00,
2013-04-10 14:23:00,19.0,14.0,-100.00,South,172,20.0,26.0,81,0.00,,,-99.99,,2013-04-10 20:23:00,
2013-04-10 14:33:00,18.0,13.0,-100.00,South,169,21.0,26.0,80,0.00,,,-99.99,,2013-04-10 20:33:00,
2013-04-10 14:42:00,18.0,14.0,-100.00,SSE,168,23.0,29.0,82,0.00,,,-99.99,,2013-04-10 20:42:00,
2013-04-10 14:52:00,18.0,13.0,-100.00,SSE,164,24.0,30.0,81,0.00,,,-99.99,,2013-04-10 20:52:00,
2013-04-10 15:02:00,18.0,13.0,-100.00,SSE,162,25.0,30.0,81,0.00,,,-99.99,,2013-04-10 21:02:00,
2013-04-10 15:12:00,19.0,14.0,-100.00,SSE,162,26.0,31.0,80,0.00,,,-99.99,,2013-04-10 21:12:00,
2013-04-10 15:22:00,19.0,14.0,-100.00,SSE,160,24.0,30.0,80,0.00,,,-99.99,,2013-04-10 21:22:00,
2013-04-10 15:32:00,19.0,14.0,-100.00,SSE,162,22.0,30.0,79,0.00,,,-99.99,,2013-04-10 21:32:00,
2013-04-10 15:42:00,20.0,14.0,-100.00,SSE,160,22.0,29.0,79,0.00,,,-99.99,,2013-04-10 21:42:00,
2013-04-10 15:53:00,20.0,14.0,-100.00,SSE,162,23.0,29.0,78,0.00,,,-99.99,,2013-04-10 21:53:00,
2013-04-10 16:03:00,20.0,14.0,-100.00,SSE,161,25.0,30.0,76,0.00,,,-99.99,,2013-04-10 22:03:00,
2013-04-10 16:12:00,21.0,15.0,-100.00,SSE,164,24.0,29.0,77,0.00,,,-99.99,,2013-04-10 22:12:00,
2013-04-10 16:22:00,21.0,14.0,-100.00,SSE,162,24.0,30.0,76,0.00,,,-99.99,,2013-04-10 22:22:00,
2013-04-10 16:33:00,21.0,14.0,-100.00,SSE,157,23.0,27.0,73,0.00,,,-99.99,,2013-04-10 22:33:00,
2013-04-10 16:42:00,22.0,15.0,-100.00,SSE,160,22.0,27.0,74,0.00,,,-99.99,,2013-04-10 22:42:00,
2013-04-10 16:52:00,22.0,14.0,-100.00,SSE,161,21.0,27.0,71,0.00,,,-99.99,,2013-04-10 22:52:00,
2013-04-10 17:12:00,23.0,12.0,-100.00,South,171,20.0,27.0,62,0.00,,,-99.99,,2013-04-10 23:12:00,
2013-04-10 17:32:00,23.0,10.0,-100.00,South,169,22.0,30.0,58,0.00,,,-99.99,,2013-04-10 23:32:00,
2013-04-10 17:42:00,23.0,12.0,-100.00,South,181,18.0,27.0,61,0.00,,,-99.99,,2013-04-10 23:42:00,
2013-04-10 17:52:00,24.0,12.0,-100.00,SSE,168,20.0,27.0,61,0.00,,,-99.99,,2013-04-10 23:52:00,
2013-04-10 18:02:00,24.0,13.0,-100.00,South,171,19.0,26.0,64,0.00,,,-99.99,,2013-04-11 00:02:00,
2013-04-10 18:12:00,24.0,14.0,-100.00,South,171,22.0,29.0,65,0.00,,,-99.99,,2013-04-11 00:12:00,
2013-04-10 18:22:00,24.0,13.0,-100.00,South,188,20.0,26.0,62,0.00,,,-99.99,,2013-04-11 00:22:00,
2013-04-10 18:32:00,25.0,13.0,-100.00,South,185,17.0,27.0,60,0.00,,,-99.99,,2013-04-11 00:32:00,
2013-04-10 18:42:00,24.0,13.0,-100.00,South,179,17.0,23.0,64,0.00,,,-99.99,,2013-04-11 00:42:00,
2013-04-10 18:52:00,24.0,13.0,-100.00,South,182,18.0,25.0,62,0.00,,,-99.99,,2013-04-11 00:52:00,
2013-04-10 19:02:00,24.0,13.0,-100.00,South,184,20.0,27.0,64,0.00,,,-99.99,,2013-04-11 01:02:00,
2013-04-10 19:12:00,23.0,15.0,-100.00,South,179,18.0,29.0,69,0.00,,,-99.99,,2013-04-11 01:12:00,
2013-04-10 19:22:00,23.0,14.0,-100.00,South,185,17.0,23.0,67,0.00,,,-99.99,,2013-04-11 01:22:00,
2013-04-10 19:32:00,24.0,13.0,-100.00,South,178,16.0,22.0,65,0.00,,,-99.99,,2013-04-11 01:32:00,
2013-04-10 19:42:00,22.0,13.0,-100.00,South,176,16.0,21.0,68,0.00,,,-99.99,,2013-04-11 01:42:00,
2013-04-10 19:52:00,23.0,13.0,-100.00,South,176,19.0,27.0,65,0.00,,,-99.99,,2013-04-11 01:52:00,
2013-04-10 20:02:00,22.0,14.0,-100.00,South,178,17.0,23.0,70,0.00,,,-99.99,,2013-04-11 02:02:00,
2013-04-10 20:12:00,21.0,14.0,-100.00,South,176,15.0,22.0,74,0.00,,,-99.99,,2013-04-11 02:12:00,
2013-04-10 20:22:00,21.0,14.0,-100.00,SSE,161,16.0,22.0,74,0.00,,,-99.99,,2013-04-11 02:22:00,
2013-04-10 20:32:00,21.0,14.0,-100.00,SSE,160,18.0,23.0,74,0.00,,,-99.99,,2013-04-11 02:32:00,
2013-04-10 20:42:00,21.0,14.0,-100.00,SSE,160,18.0,23.0,74,0.00,,,-99.99,,2013-04-11 02:42:00,
2013-04-10 20:52:00,21.0,14.0,-100.00,SSE,161,19.0,24.0,72,0.00,,,-99.99,,2013-04-11 02:52:00,
2013-04-10 21:02:00,22.0,14.0,-100.00,SSE,160,20.0,24.0,71,0.00,,,-99.99,,2013-04-11 03:02:00,
2013-04-10 21:12:00,-999.0,-99.9,-100.00,SSE,157,22.0,29.0,-999,-99.99,,,-99.99,,2013-04-11 03:12:00,
2013-04-10 21:22:00,23.0,14.0,-100.00,SSE,147,21.0,27.0,67,0.00,,,-99.99,,2013-04-11 03:22:00,
2013-04-10 21:33:00,24.0,14.0,-100.00,SE,144,20.0,26.0,66,0.00,,,-99.99,,2013-04-11 03:33:00,
2013-04-10 21:43:00,23.0,14.0,-100.00,SSE,147,19.0,26.0,68,0.00,,,-99.99,,2013-04-11 03:43:00,
2013-04-10 21:53:00,24.0,15.0,-100.00,SSE,148,22.0,29.0,68,0.00,,,-99.99,,2013-04-11 03:53:00,
2013-04-10 22:03:00,23.0,15.0,-100.00,SSE,152,25.0,32.0,71,0.00,,,-99.99,,2013-04-11 04:03:00,
2013-04-10 22:12:00,23.0,15.0,-100.00,SSE,162,22.0,28.0,71,0.00,,,-99.99,,2013-04-11 04:12:00,
2013-04-10 22:22:00,24.0,17.0,-100.00,SSE,162,26.0,34.0,72,0.00,,,-99.99,,2013-04-11 04:22:00,
2013-04-10 22:33:00,24.0,17.0,-100.00,SSE,158,27.0,34.0,72,0.00,,,-99.99,,2013-04-11 04:33:00,
2013-04-10 22:42:00,24.0,18.0,-100.00,SSE,167,26.0,33.0,80,0.00,,,-99.99,,2013-04-11 04:42:00,
2013-04-10 22:52:00,23.0,20.0,-100.00,SSE,165,30.0,35.0,87,0.00,,,-99.99,,2013-04-11 04:52:00,
2013-04-10 23:02:00,24.0,21.0,-100.00,SSE,162,29.0,34.0,89,0.01,,,-99.99,,2013-04-11 05:02:00,
2013-04-10 23:12:00,24.0,21.0,-100.00,SSE,164,30.0,37.0,90,0.00,,,-99.99,,2013-04-11 05:12:00,
2013-04-10 23:22:00,24.0,22.0,-100.00,SSE,160,29.0,37.0,92,0.01,,,-99.99,,2013-04-11 05:22:00,
2013-04-10 23:32:00,24.0,22.0,-100.00,SSE,162,30.0,39.0,92,0.00,,,-99.99,,2013-04-11 05:32:00,
2013-04-10 23:42:00,25.0,23.0,-100.00,SSE,164,26.0,32.0,92,0.01,,,-99.99,,2013-04-11 05:42:00,
2013-04-10 23:52:00,25.0,23.0,-100.00,SSE,162,27.0,34.0,93,0.00,,,-99.99,,2013-04-11 05:52:00,